SBCF METAR and TAF | Updated Today

SBCF METAR

Tancredo Neves International Airport

Observation time: 7 min. ago

SBCF 200700Z 14002KT CAVOK 09/06 Q1020

Need help? Read our tutorial on how to read METARs or read the parsed version below.

Tancredo Neves International Airport (SBCF) METAR

  • Weather conditions on Fri, 20 May 2022 07:00:00 +0000 (7 min. ago):
  • Present conditions: Dry
  • Clouds: Clear skies
  • Visibility: Greater than 10 km
  • Wind: 140 degrees at 2 knots
  • Temperature: 9 celsius
  • Dew point: 6 celsius
  • Pressure: 1020 millibars
  • Remarks: None


Useful to know...

SBCF TAF

Tancredo Neves International Airport

TAF SBCF 200400Z 2006/2106 22005KT CAVOK TN06/2010Z TX19/2018Z RMK PGQ
Observation time: 3:07 hr. ago
Need help? Read our tutorial on how to read TAFs or read the parsed version below.

Parsed version of TAF for Tancredo Neves International Airport (SBCF)

  • From 20 May at 06:00 UTC, to day 21 of the month at 06:00 UTC
  • Visibility: Greater than 10 km
  • Wind: 220 degrees at 5